Cleveland, Ohio
Traffic Map
Current Weather Conditions
Cleveland, Ohio
Scattered Clouds
Scattered Clouds
-15°
Feels Like: -24°
Wind Chill: -24° Ceiling: Unl
Heat Index: -15° Visibility: 10mi
Dew Point: -19° Wind: 12mph
Humidity: 73% Direction: 210° (SSW)
Pressure: 30.49in Gusts: 0mph
Raw Report DataKBKL 170453Z 21010KT 10SM SCT026 M15/M19 A3049 RMK AO2 SLP339 T11501189 410281156
Traffic Incident Summary
Active as of:
Severity:
Category:
InformationThere was an issue retrieving the traffic information for this location. Please try a different location or try again shortly.
Advertisements